createdAt,value
2019-04-05T00:00:00.114Z,13.50
2019-04-05T00:00:36.804Z,13.48
2019-04-05T00:01:11.639Z,13.55
2019-04-05T00:01:45.123Z,13.30
2019-04-05T00:02:19.639Z,13.78
2019-04-05T00:02:53.214Z,13.48
2019-04-05T00:03:26.696Z,14.15
2019-04-05T00:04:00.189Z,13.38
2019-04-05T00:04:33.988Z,14.58
2019-04-05T00:05:07.561Z,13.88
2019-04-05T00:05:41.047Z,14.45
2019-04-05T00:06:14.534Z,13.10
2019-04-05T00:06:48.022Z,14.45
2019-04-05T00:07:42.617Z,13.35
2019-04-05T00:08:17.279Z,14.80
2019-04-05T00:08:50.829Z,14.35
2019-04-05T00:09:24.325Z,14.40
2019-04-05T00:09:57.821Z,14.60
2019-04-05T00:10:31.320Z,14.20
2019-04-05T00:11:04.815Z,15.58
2019-04-05T00:11:38.300Z,14.90
2019-04-05T00:12:11.785Z,14.20
2019-04-05T00:12:45.402Z,13.93
2019-04-05T00:13:18.893Z,16.48
2019-04-05T00:13:52.406Z,14.95
2019-04-05T00:14:25.909Z,13.83
2019-04-05T00:14:59.310Z,14.18
2019-04-05T00:15:32.785Z,14.40
2019-04-05T00:16:06.773Z,14.30
2019-04-05T00:16:40.256Z,13.53
2019-04-05T00:17:13.741Z,14.75
2019-04-05T00:17:47.252Z,13.78
2019-04-05T00:18:20.743Z,13.15
2019-04-05T00:18:54.231Z,14.55
2019-04-05T00:19:27.719Z,14.68
2019-04-05T00:20:01.139Z,14.03
2019-04-05T00:20:34.620Z,12.98
2019-04-05T00:21:08.106Z,13.18
2019-04-05T00:21:41.590Z,15.20
2019-04-05T00:22:15.117Z,13.48
2019-04-05T00:22:49.401Z,13.08
2019-04-05T00:23:22.897Z,13.85
2019-04-05T00:23:56.383Z,13.85
2019-04-05T00:24:29.877Z,14.47
2019-04-05T00:25:03.386Z,14.87
2019-04-05T00:25:36.873Z,13.88
2019-04-05T00:26:10.290Z,13.83
2019-04-05T00:26:43.785Z,15.00
2019-04-05T00:27:17.258Z,14.33
2019-04-05T00:27:50.766Z,14.60
2019-04-05T00:28:24.266Z,15.15
2019-04-05T00:28:57.747Z,16.87
2019-04-05T00:29:31.246Z,15.03
2019-04-05T00:30:05.219Z,14.98
2019-04-05T00:30:38.717Z,15.10
2019-04-05T00:31:12.203Z,14.78
2019-04-05T00:31:45.692Z,16.25
2019-04-05T00:32:19.112Z,15.72
2019-04-05T00:32:53.450Z,14.50
2019-04-05T00:33:26.946Z,14.70
2019-04-05T00:34:00.439Z,13.75
2019-04-05T00:34:33.849Z,14.00
2019-04-05T00:35:07.542Z,13.80
2019-04-05T00:35:41.009Z,14.40
2019-04-05T00:36:14.496Z,14.23
2019-04-05T00:36:48.021Z,14.43
2019-04-05T00:37:21.506Z,15.15
2019-04-05T00:37:56.005Z,13.48
2019-04-05T00:38:29.559Z,14.18
2019-04-05T00:39:03.818Z,13.15
2019-04-05T00:39:37.315Z,14.43
2019-04-05T00:40:11.201Z,13.40
2019-04-05T00:40:44.734Z,14.50
2019-04-05T00:41:18.364Z,13.80
2019-04-05T00:41:51.842Z,15.32
2019-04-05T00:42:25.325Z,15.18
2019-04-05T00:42:59.286Z,14.60
2019-04-05T00:43:32.771Z,14.85
2019-04-05T00:44:06.271Z,14.25
2019-04-05T00:44:39.741Z,14.35
2019-04-05T00:45:13.321Z,13.75
2019-04-05T00:45:46.807Z,15.00
2019-04-05T00:46:20.293Z,14.80
2019-04-05T00:46:53.817Z,14.47
2019-04-05T00:47:27.369Z,14.23
2019-04-05T00:48:00.870Z,14.87
2019-04-05T00:48:34.359Z,13.98
2019-04-05T00:49:07.844Z,15.53
2019-04-05T00:49:41.417Z,14.15
2019-04-05T00:50:15.389Z,14.07
2019-04-05T00:50:48.877Z,14.80
2019-04-05T00:51:22.577Z,15.60
2019-04-05T00:51:56.066Z,13.93
2019-04-05T00:52:29.557Z,14.30
2019-04-05T00:53:03.156Z,14.03
2019-04-05T00:53:36.643Z,13.88
2019-04-05T00:54:10.123Z,15.80
2019-04-05T00:54:43.601Z,14.45
2019-04-05T00:55:17.174Z,14.50
2019-04-05T00:55:50.853Z,14.68
2019-04-05T00:56:24.345Z,15.03
2019-04-05T00:56:57.837Z,14.23
2019-04-05T00:57:31.322Z,14.40
2019-04-05T00:58:04.833Z,14.50
2019-04-05T00:58:38.301Z,13.85
2019-04-05T00:59:11.856Z,14.33
2019-04-05T00:59:45.331Z,14.45
2019-04-05T01:00:18.928Z,15.32
2019-04-05T01:00:52.485Z,14.78
2019-04-05T01:01:26.010Z,14.05
2019-04-05T01:01:59.498Z,14.18
2019-04-05T01:02:32.986Z,15.38
2019-04-05T01:03:06.484Z,14.33
2019-04-05T01:03:40.058Z,16.12
2019-04-05T01:04:13.558Z,15.00
2019-04-05T01:04:47.038Z,15.48
2019-04-05T01:05:20.522Z,16.10
2019-04-05T01:05:54.201Z,13.93
2019-04-05T01:06:27.698Z,14.50
2019-04-05T01:07:01.175Z,15.93
2019-04-05T01:07:34.714Z,15.32
2019-04-05T01:08:08.609Z,14.78
2019-04-05T01:08:42.197Z,15.00
2019-04-05T01:09:15.692Z,14.70
2019-04-05T01:09:49.199Z,16.07
2019-04-05T01:10:22.678Z,15.53
2019-04-05T01:10:56.170Z,15.53
2019-04-05T01:11:29.830Z,15.55
2019-04-05T01:12:03.549Z,14.45
2019-04-05T01:12:37.414Z,15.78
2019-04-05T01:13:11.023Z,15.90
2019-04-05T01:13:44.519Z,16.05
2019-04-05T01:14:18.426Z,15.23
2019-04-05T01:14:53.023Z,15.35
2019-04-05T01:15:26.508Z,14.15
2019-04-05T01:15:59.992Z,14.95
2019-04-05T01:16:33.583Z,15.13
2019-04-05T01:17:07.055Z,14.75
2019-04-05T01:17:40.979Z,21.15
2019-04-05T01:18:14.973Z,17.90
2019-04-05T01:18:48.451Z,16.30
2019-04-05T01:19:21.950Z,17.73
2019-04-05T01:19:56.903Z,18.75
2019-04-05T01:20:32.290Z,16.97
2019-04-05T01:21:06.176Z,17.23
2019-04-05T01:21:39.645Z,16.73
2019-04-05T01:22:13.831Z,14.75
2019-04-05T01:22:47.313Z,15.30
2019-04-05T01:23:20.802Z,15.30
2019-04-05T01:23:55.769Z,16.12
2019-04-05T01:24:29.262Z,16.00
2019-04-05T01:25:03.336Z,14.60
2019-04-05T01:25:37.532Z,15.65
2019-04-05T01:26:12.486Z,16.93
2019-04-05T01:26:46.763Z,14.60
2019-04-05T01:27:21.736Z,15.15
2019-04-05T01:27:55.204Z,15.28
2019-04-05T01:28:28.793Z,15.70
2019-04-05T01:29:02.262Z,14.15
2019-04-05T01:29:35.765Z,15.35
2019-04-05T01:30:10.124Z,15.70
2019-04-05T01:30:43.637Z,15.85
2019-04-05T01:31:17.126Z,15.05
2019-04-05T01:31:50.614Z,14.25
2019-04-05T01:32:24.108Z,15.30
2019-04-05T01:32:57.605Z,15.93
2019-04-05T01:33:31.090Z,15.58
2019-04-05T01:34:05.651Z,14.35
2019-04-05T01:34:39.342Z,16.23
2019-04-05T01:35:12.829Z,15.32
2019-04-05T01:35:46.314Z,16.25
2019-04-05T01:36:19.799Z,14.03
2019-04-05T01:36:53.291Z,15.70
2019-04-05T01:37:26.972Z,14.98
2019-04-05T01:38:00.757Z,15.70
2019-04-05T01:38:34.250Z,15.20
2019-04-05T01:39:07.758Z,15.93
2019-04-05T01:39:41.282Z,16.45
2019-04-05T01:40:14.974Z,14.75
2019-04-05T01:40:48.758Z,15.88
2019-04-05T01:41:22.240Z,16.02
2019-04-05T01:41:55.730Z,14.18
2019-04-05T01:42:29.527Z,14.20
2019-04-05T01:43:03.321Z,14.83
2019-04-05T01:43:37.145Z,14.43
2019-04-05T01:44:11.049Z,15.48
2019-04-05T01:44:44.831Z,15.28
2019-04-05T01:45:18.818Z,16.25
2019-04-05T01:45:54.275Z,15.08
2019-04-05T01:46:27.889Z,15.35
2019-04-05T01:47:01.374Z,15.80
2019-04-05T01:47:34.858Z,15.55
2019-04-05T01:48:08.339Z,15.28
2019-04-05T01:48:41.857Z,15.48
2019-04-05T01:49:15.338Z,14.95
2019-04-05T01:49:48.837Z,15.18
2019-04-05T01:50:22.344Z,15.25
2019-04-05T01:50:55.826Z,15.58
2019-04-05T01:51:29.366Z,16.25
2019-04-05T01:52:02.859Z,16.10
2019-04-05T01:52:36.541Z,14.83
2019-04-05T01:53:10.033Z,15.25
2019-04-05T01:53:43.537Z,16.10
2019-04-05T01:54:17.013Z,14.95
2019-04-05T01:54:50.503Z,16.48
2019-04-05T01:55:23.978Z,15.32
2019-04-05T01:55:57.475Z,15.68
2019-04-05T01:56:30.956Z,16.65
2019-04-05T01:57:04.447Z,17.05
2019-04-05T01:57:37.865Z,15.63
2019-04-05T01:58:11.382Z,15.98
2019-04-05T01:58:44.889Z,14.75
2019-04-05T01:59:18.395Z,16.12
2019-04-05T01:59:51.897Z,15.08
2019-04-05T02:00:25.382Z,15.78
2019-04-05T02:00:59.137Z,16.20
2019-04-05T02:01:32.726Z,15.53
2019-04-05T02:02:06.291Z,16.70
2019-04-05T02:02:39.810Z,17.07
2019-04-05T02:03:13.281Z,16.30
2019-04-05T02:03:46.765Z,15.13
2019-04-05T02:04:20.334Z,16.55
2019-04-05T02:04:53.823Z,16.10
2019-04-05T02:05:27.303Z,15.88
2019-04-05T02:06:00.787Z,15.20
2019-04-05T02:06:34.274Z,16.25
2019-04-05T02:07:07.749Z,16.40
2019-04-05T02:07:41.238Z,16.57
2019-04-05T02:08:14.726Z,16.65
2019-04-05T02:08:48.314Z,15.93
2019-04-05T02:09:22.371Z,15.15
2019-04-05T02:09:55.855Z,15.00
2019-04-05T02:10:29.342Z,16.12
2019-04-05T02:11:02.826Z,16.02
2019-04-05T02:11:36.310Z,16.62
2019-04-05T02:12:10.004Z,15.15
2019-04-05T02:12:43.486Z,16.65
2019-04-05T02:13:16.971Z,15.78
2019-04-05T02:13:50.470Z,15.68
2019-04-05T02:14:23.969Z,14.80
2019-04-05T02:14:57.494Z,15.23
2019-04-05T02:15:31.978Z,15.30
2019-04-05T02:16:06.849Z,15.95
2019-04-05T02:16:40.625Z,16.37
2019-04-05T02:17:14.132Z,16.05
2019-04-05T02:17:47.606Z,14.05
2019-04-05T02:18:21.102Z,15.08
2019-04-05T02:18:54.575Z,15.55
2019-04-05T02:19:28.235Z,16.12
2019-04-05T02:20:01.773Z,16.15
2019-04-05T02:20:35.270Z,15.70
2019-04-05T02:21:08.754Z,14.90
2019-04-05T02:21:42.229Z,16.02
2019-04-05T02:22:15.717Z,15.15
2019-04-05T02:22:49.197Z,15.80
2019-04-05T02:23:22.698Z,16.15
2019-04-05T02:23:56.361Z,15.90
2019-04-05T02:24:30.641Z,17.45
2019-04-05T02:25:04.357Z,16.95
2019-04-05T02:25:37.915Z,16.35
2019-04-05T02:26:11.393Z,17.73
2019-04-05T02:26:44.879Z,17.95
2019-04-05T02:27:18.366Z,17.62
2019-04-05T02:27:51.855Z,16.93
2019-04-05T02:28:25.548Z,18.10
2019-04-05T02:28:59.289Z,17.30
2019-04-05T02:29:32.794Z,18.25
2019-04-05T02:30:06.523Z,17.42
2019-04-05T02:30:40.224Z,16.75
2019-04-05T02:31:13.705Z,16.82
2019-04-05T02:31:47.195Z,17.05
2019-04-05T02:32:20.675Z,17.75
2019-04-05T02:32:54.364Z,18.00
2019-04-05T02:33:27.852Z,18.80
2019-04-05T02:34:01.334Z,18.32
2019-04-05T02:34:34.855Z,18.17
2019-04-05T02:35:08.534Z,19.05
2019-04-05T02:35:42.119Z,18.77
2019-04-05T02:36:15.611Z,17.67
2019-04-05T02:36:49.091Z,18.00
2019-04-05T02:37:22.599Z,19.30
2019-04-05T02:37:56.300Z,18.92
2019-04-05T02:38:29.875Z,19.32
2019-04-05T02:39:03.971Z,21.15
2019-04-05T02:39:37.465Z,19.70
2019-04-05T02:40:12.042Z,21.12
2019-04-05T02:40:46.294Z,22.77
2019-04-05T02:41:20.659Z,23.12
2019-04-05T02:41:54.871Z,24.00
2019-04-05T02:42:28.759Z,23.15
2019-04-05T02:43:02.651Z,25.08
2019-04-05T02:43:37.939Z,25.80
2019-04-05T02:44:12.937Z,28.15
2019-04-05T02:44:46.947Z,25.30
2019-04-05T02:45:20.455Z,26.95
2019-04-05T02:45:54.791Z,26.12
2019-04-05T02:46:29.965Z,26.57
2019-04-05T02:47:03.947Z,24.72
2019-04-05T02:47:37.938Z,26.37
2019-04-05T02:48:12.936Z,25.55
2019-04-05T02:48:48.012Z,25.10
2019-04-05T02:49:23.066Z,25.65
2019-04-05T02:49:57.240Z,26.57
2019-04-05T02:50:31.648Z,26.80
2019-04-05T02:51:07.002Z,26.52
2019-04-05T02:51:41.193Z,25.88
2019-04-05T02:52:16.002Z,26.97
2019-04-05T02:52:50.962Z,26.95
2019-04-05T02:53:24.846Z,26.68
2019-04-05T02:53:58.628Z,26.27
2019-04-05T02:54:32.758Z,25.20
2019-04-05T02:55:06.450Z,26.93
2019-04-05T02:55:41.019Z,28.35
2019-04-05T02:56:14.805Z,28.85
2019-04-05T02:56:48.295Z,30.95
2019-04-05T02:57:22.425Z,31.97
2019-04-05T02:57:57.005Z,30.20
2019-04-05T02:58:31.693Z,31.73
2019-04-05T02:59:05.409Z,32.20
2019-04-05T02:59:39.011Z,34.10
2019-04-05T03:00:12.599Z,33.67
2019-04-05T03:00:46.382Z,34.70
2019-04-05T03:01:22.603Z,34.18
2019-04-05T03:01:56.083Z,34.25
2019-04-05T03:02:29.877Z,36.23
2019-04-05T03:03:04.801Z,36.77
2019-04-05T03:03:39.276Z,35.52
2019-04-05T03:04:13.055Z,38.28
2019-04-05T03:04:46.758Z,40.33
2019-04-05T03:05:21.951Z,38.58
2019-04-05T03:05:55.673Z,38.83
2019-04-05T03:06:29.911Z,40.83
2019-04-05T03:07:03.546Z,40.60
2019-04-05T03:07:37.317Z,40.28
2019-04-05T03:08:10.902Z,40.67
2019-04-05T03:08:44.594Z,43.00
2019-04-05T03:09:18.875Z,44.08
2019-04-05T03:09:52.388Z,42.38
2019-04-05T03:10:48.151Z,41.08
2019-04-05T03:11:23.241Z,41.40
2019-04-05T03:11:57.737Z,42.90
2019-04-05T03:12:31.224Z,42.00
2019-04-05T03:13:04.780Z,42.03
2019-04-05T03:13:40.918Z,41.68
2019-04-05T03:14:14.413Z,42.15
2019-04-05T03:14:48.237Z,41.50
2019-04-05T03:15:21.946Z,40.65
2019-04-05T03:15:56.903Z,42.78
2019-04-05T03:16:40.840Z,42.55
2019-04-05T03:17:09.083Z,42.13
2019-04-05T03:17:42.878Z,42.40
2019-04-05T03:18:16.677Z,43.63
2019-04-05T03:18:51.737Z,41.37
2019-04-05T03:19:27.220Z,43.02
2019-04-05T03:20:02.121Z,45.40
2019-04-05T03:20:35.701Z,42.48
2019-04-05T03:21:09.828Z,44.85
2019-04-05T03:21:44.810Z,42.20
2019-04-05T03:22:19.087Z,45.85
2019-04-05T03:22:52.554Z,46.48
2019-04-05T03:23:26.983Z,44.88
2019-04-05T03:24:02.022Z,46.42
2019-04-05T03:24:37.043Z,45.75
2019-04-05T03:25:11.235Z,46.30
2019-04-05T03:25:48.062Z,44.85
2019-04-05T03:26:21.797Z,45.60
2019-04-05T03:26:58.835Z,44.50
2019-04-05T03:27:33.795Z,45.75
2019-04-05T03:28:08.039Z,46.75
2019-04-05T03:28:41.745Z,44.67
2019-04-05T03:29:15.424Z,45.52
2019-04-05T03:29:48.902Z,47.10
2019-04-05T03:30:22.590Z,46.25
2019-04-05T03:30:56.247Z,45.05
2019-04-05T03:31:30.000Z,45.80
2019-04-05T03:32:03.594Z,45.17
2019-04-05T03:32:37.865Z,46.15
2019-04-05T03:33:11.421Z,47.15
2019-04-05T03:33:44.911Z,45.90
2019-04-05T03:34:18.472Z,45.60
2019-04-05T03:34:52.148Z,45.20
2019-04-05T03:35:25.671Z,47.30
2019-04-05T03:35:59.153Z,46.02
2019-04-05T03:36:32.942Z,47.27
2019-04-05T03:37:06.434Z,47.73
2019-04-05T03:37:39.969Z,47.17
2019-04-05T03:38:13.524Z,47.35
2019-04-05T03:38:47.268Z,46.10
2019-04-05T03:39:20.783Z,48.08
2019-04-05T03:39:55.272Z,46.68
2019-04-05T03:40:28.754Z,44.10
2019-04-05T03:41:02.268Z,45.43
2019-04-05T03:41:36.435Z,45.60
2019-04-05T03:42:10.627Z,46.58
2019-04-05T03:42:44.130Z,48.42
2019-04-05T03:43:17.625Z,47.27
2019-04-05T03:43:51.113Z,47.08
2019-04-05T03:44:24.595Z,45.50
2019-04-05T03:44:58.213Z,47.25
2019-04-05T03:45:32.451Z,46.40
2019-04-05T03:46:06.371Z,45.30
2019-04-05T03:46:55.392Z,46.60
2019-04-05T03:47:15.441Z,45.83
2019-04-05T03:47:49.051Z,44.85
2019-04-05T03:48:22.542Z,44.58
2019-04-05T03:48:56.236Z,45.30
2019-04-05T03:49:29.841Z,46.53
2019-04-05T03:50:03.736Z,45.15
2019-04-05T03:50:37.458Z,45.05
2019-04-05T03:51:11.334Z,44.23
2019-04-05T03:51:44.845Z,46.90
2019-04-05T03:52:18.410Z,43.73
2019-04-05T03:52:51.898Z,44.93
2019-04-05T03:53:25.412Z,47.25
2019-04-05T03:53:59.280Z,43.60
2019-04-05T03:54:32.982Z,44.15
2019-04-05T03:55:06.534Z,46.60
2019-04-05T03:55:40.246Z,43.70
2019-04-05T03:56:14.406Z,45.23
2019-04-05T03:56:47.882Z,44.98
2019-04-05T03:57:21.371Z,45.52
2019-04-05T03:57:54.862Z,45.03
2019-04-05T03:58:28.922Z,46.60
2019-04-05T03:59:02.759Z,44.10
2019-04-05T03:59:36.539Z,43.95
2019-04-05T04:00:10.126Z,43.90
2019-04-05T04:00:43.638Z,44.50
2019-04-05T04:01:17.319Z,44.15
2019-04-05T04:01:51.015Z,42.40
2019-04-05T04:02:24.549Z,44.40
2019-04-05T04:02:58.037Z,42.05
2019-04-05T04:03:31.535Z,44.20
2019-04-05T04:04:05.186Z,44.73
2019-04-05T04:04:38.655Z,44.67
2019-04-05T04:05:12.142Z,44.70
2019-04-05T04:05:45.629Z,44.53
2019-04-05T04:06:19.160Z,46.13
2019-04-05T04:06:52.711Z,43.68
2019-04-05T04:07:26.202Z,46.92
2019-04-05T04:07:59.685Z,44.18
2019-04-05T04:08:33.162Z,46.48
2019-04-05T04:09:06.934Z,43.40
2019-04-05T04:09:40.424Z,47.20
2019-04-05T04:10:16.101Z,44.90
2019-04-05T04:10:50.572Z,45.15
2019-04-05T04:11:24.074Z,44.90
2019-04-05T04:11:57.674Z,45.03
2019-04-05T04:12:31.667Z,45.25
2019-04-05T04:13:05.150Z,45.00
2019-04-05T04:13:38.730Z,44.77
2019-04-05T04:14:12.318Z,47.45
2019-04-05T04:14:45.914Z,45.60
2019-04-05T04:15:19.398Z,46.08
2019-04-05T04:15:53.308Z,46.90
2019-04-05T04:16:26.953Z,44.20
2019-04-05T04:17:12.121Z,45.67
2019-04-05T04:17:35.958Z,45.48
2019-04-05T04:18:09.454Z,45.17
2019-04-05T04:18:42.963Z,47.03
2019-04-05T04:19:16.651Z,46.98
2019-04-05T04:19:50.307Z,46.92
2019-04-05T04:20:31.726Z,47.35
2019-04-05T04:21:09.818Z,47.80
2019-04-05T04:21:52.456Z,47.62
2019-04-05T04:22:28.170Z,47.55
2019-04-05T04:23:01.858Z,48.15
2019-04-05T04:23:35.574Z,48.42
2019-04-05T04:24:09.721Z,48.15
2019-04-05T04:24:43.500Z,46.95
2019-04-05T04:25:17.086Z,49.53
2019-04-05T04:25:51.675Z,48.10
2019-04-05T04:26:25.214Z,46.70
2019-04-05T04:26:58.691Z,48.30
2019-04-05T04:27:32.480Z,45.92
2019-04-05T04:28:06.451Z,47.55
2019-04-05T04:28:39.938Z,48.70
2019-04-05T04:29:13.535Z,50.03
2019-04-05T04:29:47.225Z,47.03
2019-04-05T04:30:21.014Z,48.60
2019-04-05T04:30:54.502Z,49.65
2019-04-05T04:31:29.099Z,49.03
2019-04-05T04:32:02.779Z,47.83
2019-04-05T04:32:36.371Z,49.50
2019-04-05T04:33:09.863Z,50.28
2019-04-05T04:33:43.559Z,47.17
2019-04-05T04:34:17.563Z,51.20
2019-04-05T04:34:51.244Z,50.90
2019-04-05T04:35:24.934Z,50.25
2019-04-05T04:35:58.408Z,49.30
2019-04-05T04:36:32.317Z,50.75
2019-04-05T04:37:05.789Z,51.68
2019-04-05T04:37:39.486Z,50.12
2019-04-05T04:38:12.997Z,51.13
2019-04-05T04:38:46.463Z,51.60
2019-04-05T04:39:20.056Z,49.00
2019-04-05T04:39:53.785Z,52.62
2019-04-05T04:40:27.332Z,51.40
2019-04-05T04:41:00.822Z,52.67
2019-04-05T04:41:34.386Z,53.78
2019-04-05T04:42:07.922Z,50.95
2019-04-05T04:42:41.811Z,52.35
2019-04-05T04:43:15.439Z,52.90
2019-04-05T04:43:48.918Z,55.12
2019-04-05T04:44:22.615Z,53.65
2019-04-05T04:45:10.971Z,55.05
2019-04-05T04:45:32.562Z,54.63
2019-04-05T04:46:07.039Z,53.28
2019-04-05T04:46:40.756Z,54.00
2019-04-05T04:47:25.747Z,54.08
2019-04-05T04:47:50.305Z,54.73
2019-04-05T04:48:23.815Z,55.43
2019-04-05T04:48:58.202Z,54.50
2019-04-05T04:49:32.183Z,53.50
2019-04-05T04:50:05.682Z,56.15
2019-04-05T04:50:39.859Z,55.23
2019-04-05T04:51:13.576Z,54.53
2019-04-05T04:51:47.386Z,57.17
2019-04-05T04:52:20.972Z,56.60
2019-04-05T04:52:54.766Z,55.73
2019-04-05T04:53:28.575Z,56.20
2019-04-05T04:54:02.427Z,55.10
2019-04-05T04:54:36.113Z,54.65
2019-04-05T04:55:09.612Z,59.77
2019-04-05T04:55:43.111Z,55.15
2019-04-05T04:56:16.621Z,56.77
2019-04-05T04:56:50.705Z,55.25
2019-04-05T04:57:24.185Z,55.40
2019-04-05T04:57:57.674Z,54.77
2019-04-05T04:58:31.437Z,55.40
2019-04-05T04:59:04.926Z,55.20
2019-04-05T04:59:38.461Z,60.35
2019-04-05T05:00:11.942Z,57.67
2019-04-05T05:00:45.436Z,57.88
2019-04-05T05:01:19.114Z,57.88
2019-04-05T05:01:52.645Z,58.50
2019-04-05T05:02:26.498Z,58.58
2019-04-05T05:03:00.341Z,57.50
2019-04-05T05:03:33.826Z,60.73
2019-04-05T05:04:08.446Z,57.93
2019-04-05T05:04:42.090Z,55.80
2019-04-05T05:05:16.438Z,56.23
2019-04-05T05:05:50.023Z,55.40
2019-04-05T05:06:23.528Z,59.23
2019-04-05T05:06:57.044Z,56.18
2019-04-05T05:07:31.034Z,56.63
2019-04-05T05:08:04.973Z,56.50
2019-04-05T05:08:38.454Z,56.28
2019-04-05T05:09:11.935Z,58.55
2019-04-05T05:09:45.518Z,55.38
2019-04-05T05:10:19.207Z,56.13
2019-04-05T05:10:52.698Z,55.95
2019-04-05T05:11:26.307Z,56.55
2019-04-05T05:11:59.910Z,55.92
2019-04-05T05:12:33.433Z,56.10
2019-04-05T05:13:07.202Z,55.63
2019-04-05T05:13:40.939Z,56.33
2019-04-05T05:14:14.421Z,58.08
2019-04-05T05:14:47.954Z,54.67
2019-04-05T05:15:21.432Z,56.68
2019-04-05T05:15:55.248Z,59.25
2019-04-05T05:16:28.727Z,55.60
2019-04-05T05:17:02.460Z,53.38
2019-04-05T05:17:38.798Z,57.20
2019-04-05T05:18:11.354Z,55.33
2019-04-05T05:18:44.881Z,52.90
2019-04-05T05:19:18.571Z,55.58
2019-04-05T05:19:52.355Z,56.18
2019-04-05T05:20:25.836Z,55.28
2019-04-05T05:20:59.325Z,54.50
2019-04-05T05:21:32.894Z,55.73
2019-04-05T05:22:06.388Z,52.35
2019-04-05T05:22:39.876Z,55.38
2019-04-05T05:23:13.362Z,54.00
2019-04-05T05:23:47.281Z,54.73
2019-04-05T05:24:20.903Z,53.87
2019-04-05T05:24:54.853Z,54.27
2019-04-05T05:25:28.418Z,53.15
2019-04-05T05:26:02.217Z,55.15
2019-04-05T05:26:35.773Z,57.40
2019-04-05T05:27:10.609Z,56.90
2019-04-05T05:27:44.096Z,55.58
2019-04-05T05:28:17.687Z,54.00
2019-04-05T05:28:51.361Z,55.85
2019-04-05T05:29:24.845Z,53.40
2019-04-05T05:29:58.326Z,53.90
2019-04-05T05:30:31.798Z,52.70
2019-04-05T05:31:05.474Z,52.78
2019-04-05T05:31:38.956Z,53.98
2019-04-05T05:32:13.010Z,55.43
2019-04-05T05:32:46.489Z,53.35
2019-04-05T05:33:20.265Z,54.60
2019-04-05T05:33:54.106Z,54.40
2019-04-05T05:34:27.589Z,52.27
2019-04-05T05:35:02.481Z,55.92
2019-04-05T05:35:36.426Z,53.13
2019-04-05T05:36:10.592Z,50.92
2019-04-05T05:36:44.626Z,54.77
2019-04-05T05:37:18.668Z,54.23
2019-04-05T05:37:52.137Z,53.35
2019-04-05T05:38:25.625Z,53.90
2019-04-05T05:38:59.189Z,52.90
2019-04-05T05:39:32.663Z,50.08
2019-04-05T05:40:06.737Z,53.90
2019-04-05T05:40:40.214Z,54.30
2019-04-05T05:41:13.694Z,55.48
2019-04-05T05:41:47.174Z,52.15
2019-04-05T05:42:20.758Z,52.83
2019-04-05T05:42:54.421Z,54.10
2019-04-05T05:43:27.908Z,52.38
2019-04-05T05:44:01.399Z,52.33
2019-04-05T05:44:34.871Z,52.43
2019-04-05T05:45:08.863Z,51.98
2019-04-05T05:45:42.342Z,51.98
2019-04-05T05:46:15.821Z,53.23
2019-04-05T05:46:49.318Z,53.33
2019-04-05T05:47:23.487Z,51.35
2019-04-05T05:47:57.170Z,55.10
2019-04-05T05:48:31.123Z,52.35
2019-04-05T05:49:05.238Z,53.75
2019-04-05T05:49:38.911Z,52.00
2019-04-05T05:50:12.606Z,53.85
2019-04-05T05:50:46.599Z,53.33
2019-04-05T05:51:20.073Z,51.95
2019-04-05T05:51:53.960Z,52.15
2019-04-05T05:52:27.483Z,57.70
2019-04-05T05:53:00.890Z,56.60
2019-04-05T05:53:34.375Z,54.30
2019-04-05T05:54:08.030Z,56.42
2019-04-05T05:54:41.545Z,56.73
2019-04-05T05:55:15.025Z,54.85
2019-04-05T05:55:48.510Z,56.30
2019-04-05T05:56:22.006Z,56.15
2019-04-05T05:56:55.493Z,54.83
2019-04-05T05:57:29.010Z,54.77
2019-04-05T05:58:02.489Z,56.42
2019-04-05T05:58:36.067Z,55.92
2019-04-05T05:59:09.767Z,54.42
2019-04-05T05:59:43.325Z,56.13
2019-04-05T06:00:18.135Z,58.25
2019-04-05T06:00:51.637Z,55.10
2019-04-05T06:01:25.202Z,55.67
2019-04-05T06:01:58.690Z,55.67
2019-04-05T06:02:32.190Z,57.78
2019-04-05T06:03:06.412Z,58.98
2019-04-05T06:03:40.144Z,58.35
2019-04-05T06:04:13.829Z,59.20
2019-04-05T06:04:47.323Z,57.83
2019-04-05T06:05:20.894Z,58.55
2019-04-05T06:06:04.253Z,57.53
2019-04-05T06:06:29.536Z,59.10
2019-04-05T06:07:03.078Z,59.50
2019-04-05T06:07:36.576Z,58.00
2019-04-05T06:08:10.241Z,56.05
2019-04-05T06:08:43.775Z,57.73
2019-04-05T06:09:17.285Z,56.75
2019-04-05T06:09:50.811Z,61.68
2019-04-05T06:10:24.289Z,58.17
2019-04-05T06:10:57.810Z,59.93
2019-04-05T06:11:31.315Z,58.58
2019-04-05T06:12:04.794Z,59.75
2019-04-05T06:12:38.305Z,60.00
2019-04-05T06:13:11.806Z,61.23
2019-04-05T06:13:45.288Z,58.98
2019-04-05T06:14:18.795Z,57.40
2019-04-05T06:14:53.168Z,59.33
2019-04-05T06:15:26.658Z,57.60
2019-04-05T06:16:00.290Z,57.45
2019-04-05T06:16:45.789Z,56.88
2019-04-05T06:17:08.982Z,51.73
2019-04-05T06:17:42.514Z,57.58
2019-04-05T06:18:16.011Z,54.33
2019-04-05T06:18:49.473Z,53.52
2019-04-05T06:19:22.960Z,53.63
2019-04-05T06:19:56.453Z,55.28
2019-04-05T06:20:29.930Z,55.92
2019-04-05T06:21:03.678Z,54.03
2019-04-05T06:21:37.398Z,54.95
2019-04-05T06:22:10.887Z,55.98
2019-04-05T06:22:47.432Z,54.98
2019-04-05T06:23:32.762Z,53.50
2019-04-05T06:23:54.834Z,53.98
2019-04-05T06:24:28.320Z,56.02
2019-04-05T06:25:01.802Z,55.30
2019-04-05T06:25:35.272Z,54.63
2019-04-05T06:26:08.755Z,56.60
2019-04-05T06:26:42.238Z,56.00
2019-04-05T06:27:15.741Z,55.92
2019-04-05T06:27:49.366Z,56.45
2019-04-05T06:28:22.851Z,54.40
2019-04-05T06:28:56.336Z,57.00
2019-04-05T06:29:29.835Z,51.70
2019-04-05T06:30:03.398Z,55.23
2019-04-05T06:30:36.886Z,56.98
2019-04-05T06:31:10.376Z,57.48
2019-04-05T06:31:43.946Z,53.83
2019-04-05T06:32:17.421Z,53.63
2019-04-05T06:32:50.918Z,54.08
2019-04-05T06:33:31.376Z,52.55
2019-04-05T06:33:59.597Z,54.42
2019-04-05T06:34:33.013Z,52.90
2019-04-05T06:35:06.649Z,54.10
2019-04-05T06:35:40.122Z,50.45
2019-04-05T06:36:13.618Z,54.27
2019-04-05T06:36:47.129Z,54.20
2019-04-05T06:37:20.614Z,51.98
2019-04-05T06:37:54.715Z,53.55
2019-04-05T06:38:28.313Z,50.90
2019-04-05T06:39:01.793Z,53.98
2019-04-05T06:39:35.297Z,54.40
2019-04-05T06:40:08.783Z,52.00
2019-04-05T06:40:42.187Z,52.00
2019-04-05T06:41:15.662Z,51.80
2019-04-05T06:41:49.155Z,52.70
2019-04-05T06:42:22.737Z,52.78
2019-04-05T06:42:56.277Z,51.15
2019-04-05T06:43:29.754Z,52.95
2019-04-05T06:44:03.255Z,51.60
2019-04-05T06:44:36.738Z,53.63
2019-04-05T06:45:10.430Z,49.42
2019-04-05T06:45:43.976Z,50.35
2019-04-05T06:46:17.568Z,54.48
2019-04-05T06:46:51.058Z,50.60
2019-04-05T06:47:24.538Z,50.30
2019-04-05T06:47:58.038Z,50.65
2019-04-05T06:48:31.550Z,50.58
2019-04-05T06:49:05.017Z,50.92
2019-04-05T06:49:38.498Z,50.60
2019-04-05T06:50:11.997Z,50.63
2019-04-05T06:50:47.271Z,50.78
2019-04-05T06:51:20.681Z,50.03
2019-04-05T06:51:54.166Z,50.70
2019-04-05T06:52:27.642Z,52.48
2019-04-05T06:53:01.049Z,49.42
2019-04-05T06:53:34.959Z,50.50
2019-04-05T06:54:08.437Z,50.63
2019-04-05T06:54:41.914Z,50.78
2019-04-05T06:55:15.329Z,49.35
2019-04-05T06:55:48.810Z,49.23
2019-04-05T06:56:22.386Z,50.40
2019-04-05T06:56:55.946Z,50.30
2019-04-05T06:57:29.425Z,50.48
2019-04-05T06:58:02.906Z,48.60
2019-04-05T06:58:36.415Z,48.55
2019-04-05T06:59:09.890Z,51.50
2019-04-05T06:59:43.462Z,50.35
2019-04-05T07:00:19.947Z,50.75
2019-04-05T07:00:57.288Z,49.70
2019-04-05T07:01:28.613Z,50.28
2019-04-05T07:02:02.088Z,49.70
2019-04-05T07:02:35.566Z,49.48
2019-04-05T07:03:09.038Z,48.23
2019-04-05T07:03:42.529Z,48.95
2019-04-05T07:04:16.010Z,49.10
2019-04-05T07:04:49.493Z,48.10
2019-04-05T07:05:23.000Z,48.48
2019-04-05T07:05:56.483Z,50.33
2019-04-05T07:06:29.978Z,47.95
2019-04-05T07:07:03.465Z,49.77
2019-04-05T07:07:36.942Z,48.02
2019-04-05T07:08:10.443Z,48.35
2019-04-05T07:08:53.665Z,48.73
2019-04-05T07:09:19.124Z,50.20
2019-04-05T07:09:52.578Z,45.80
2019-04-05T07:10:26.101Z,48.28
2019-04-05T07:10:59.514Z,50.23
2019-04-05T07:11:32.994Z,48.28
2019-04-05T07:12:06.495Z,48.90
2019-04-05T07:12:40.002Z,48.80
2019-04-05T07:13:13.481Z,49.67
2019-04-05T07:13:46.998Z,48.10
2019-04-05T07:14:20.500Z,49.75
2019-04-05T07:14:56.223Z,49.18
2019-04-05T07:15:29.304Z,47.40